Strona główna
METAR-TAF:

METAR-TAF

Lotnisko :

Port lotniczy Stambuł-Atatürk

Stambuł Atatürk, Turcja

Szerokość geograficzna: 40-58N, Długość geograficzna: 028-49E, wysokość: 48 m

Aktualna obserwacja pogody

Raport powstał 21 minut temu, godzina 01:20 UTC
Wiatr 6 kt od północny wschód
Temperatura 8°C
Wilgotność 71%
Ciśnienie 1028 hPa
Widzialność 10 km lub więcej
Rozproszone chmury na wysokości 3500 ft

METAR: LTBA 060120Z 04006KT 9999 SCT035 08/03 Q1028 NOSIG RMK RWY17L 04003KT 010V080 RWY05 03006KT RWY23 05006KT

czas: 04:41 (01:41 UTC)

Prognoza

Raport powstał 3 godziny i 1 minut temu, godzina 22:40 UTC
Prognoza ważna od 06 godzina 00 UTC do 07 godzina 06 UTC
Wiatr 5 kt od północny wschód
Widzialność 10 km lub więcej
Brak chmur poniżej 1500 m i brak chmur cumulonimbus
Stopniowe zmiany
od 07 godzina 04 UTC do 07 godzina 06 UTC
Wiatr 12 kt od południowo-południowy zachód

TAF: LTBA 052240Z 0600/0706 04005KT CAVOK BECMG 0704/0706 20012KT

Obserwacja i prognoza pogody dla ponad 4000 lotnisk (raport METAR i TAF).

Dostępne stacje oznaczono żółtymi i czerwonymi punktami na mapie.

Najedź kursorem aby zobaczyć nazwę stacji.

Kliknij aby zobaczyć obserwacje i prognozy pogody.

Aby zmienić mapę: kliknij na zielony przycisk z czarnym krzyżykiem, aby powiększyć; na zielony przycisk z myślnikiem, aby pomniejszyć; na zielone strzałki, aby przejść do map sąsiednich.


METAR-TAF: